sensor_id;sensor_type;location;lat;lon;timestamp;P1;durP1;ratioP1;P2;durP2;ratioP2
51190;SDS011;37253;48.736;9.294;2023-04-08T00:00:32;0.52;;;0.50;;
51190;SDS011;37253;48.736;9.294;2023-04-08T00:02:33;1.17;;;0.73;;
51190;SDS011;37253;48.736;9.294;2023-04-08T00:04:33;1.40;;;0.70;;
51190;SDS011;37253;48.736;9.294;2023-04-08T00:06:33;0.60;;;0.60;;
51190;SDS011;37253;48.736;9.294;2023-04-08T00:08:34;1.15;;;0.70;;
51190;SDS011;37253;48.736;9.294;2023-04-08T00:10:34;7.30;;;0.70;;
51190;SDS011;37253;48.736;9.294;2023-04-08T00:12:35;0.95;;;0.68;;
51190;SDS011;37253;48.736;9.294;2023-04-08T00:14:35;0.50;;;0.50;;
51190;SDS011;37253;48.736;9.294;2023-04-08T00:16:37;0.63;;;0.50;;
51190;SDS011;37253;48.736;9.294;2023-04-08T00:18:37;0.70;;;0.50;;
51190;SDS011;37253;48.736;9.294;2023-04-08T00:20:38;0.73;;;0.45;;
51190;SDS011;37253;48.736;9.294;2023-04-08T00:22:38;0.82;;;0.60;;
51190;SDS011;37253;48.736;9.294;2023-04-08T00:24:38;0.60;;;0.40;;
51190;SDS011;37253;48.736;9.294;2023-04-08T00:26:39;0.93;;;0.50;;
51190;SDS011;37253;48.736;9.294;2023-04-08T00:28:40;0.82;;;0.50;;
51190;SDS011;37253;48.736;9.294;2023-04-08T00:30:42;0.77;;;0.60;;
51190;SDS011;37253;48.736;9.294;2023-04-08T00:32:42;0.57;;;0.50;;
51190;SDS011;37253;48.736;9.294;2023-04-08T00:34:42;1.23;;;0.50;;
51190;SDS011;37253;48.736;9.294;2023-04-08T00:36:43;0.60;;;0.50;;
51190;SDS011;37253;48.736;9.294;2023-04-08T00:38:44;0.68;;;0.57;;
51190;SDS011;37253;48.736;9.294;2023-04-08T00:40:44;0.50;;;0.50;;
51190;SDS011;37253;48.736;9.294;2023-04-08T00:42:45;1.13;;;0.60;;
51190;SDS011;37253;48.736;9.294;2023-04-08T00:44:45;0.50;;;0.50;;
51190;SDS011;37253;48.736;9.294;2023-04-08T00:46:45;0.52;;;0.50;;
51190;SDS011;37253;48.736;9.294;2023-04-08T00:48:46;0.88;;;0.50;;
51190;SDS011;37253;48.736;9.294;2023-04-08T00:50:46;1.20;;;0.60;;
51190;SDS011;37253;48.736;9.294;2023-04-08T00:52:47;0.98;;;0.40;;
51190;SDS011;37253;48.736;9.294;2023-04-08T00:54:47;0.90;;;0.50;;
51190;SDS011;37253;48.736;9.294;2023-04-08T00:56:48;0.50;;;0.50;;
51190;SDS011;37253;48.736;9.294;2023-04-08T00:58:49;0.68;;;0.60;;
51190;SDS011;37253;48.736;9.294;2023-04-08T01:00:54;2.45;;;0.65;;
51190;SDS011;37253;48.736;9.294;2023-04-08T01:03:07;0.77;;;0.50;;
51190;SDS011;37253;48.736;9.294;2023-04-08T01:07:35;1.38;;;0.52;;
51190;SDS011;37253;48.736;9.294;2023-04-08T01:09:37;1.02;;;0.55;;
51190;SDS011;37253;48.736;9.294;2023-04-08T01:11:40;0.70;;;0.70;;
51190;SDS011;37253;48.736;9.294;2023-04-08T01:13:42;0.60;;;0.60;;
51190;SDS011;37253;48.736;9.294;2023-04-08T01:15:44;0.50;;;0.40;;
51190;SDS011;37253;48.736;9.294;2023-04-08T01:17:45;1.00;;;0.60;;
51190;SDS011;37253;48.736;9.294;2023-04-08T01:19:46;0.40;;;0.40;;
51190;SDS011;37253;48.736;9.294;2023-04-08T01:21:46;0.65;;;0.55;;
51190;SDS011;37253;48.736;9.294;2023-04-08T01:23:57;0.70;;;0.55;;
51190;SDS011;37253;48.736;9.294;2023-04-08T01:25:59;0.80;;;0.40;;
51190;SDS011;37253;48.736;9.294;2023-04-08T01:28:00;0.70;;;0.52;;
51190;SDS011;37253;48.736;9.294;2023-04-08T01:30:03;0.50;;;0.43;;
51190;SDS011;37253;48.736;9.294;2023-04-08T01:32:04;3.97;;;0.50;;
51190;SDS011;37253;48.736;9.294;2023-04-08T01:34:06;2.30;;;0.50;;
51190;SDS011;37253;48.736;9.294;2023-04-08T01:36:06;1.00;;;0.60;;
51190;SDS011;37253;48.736;9.294;2023-04-08T01:38:08;0.60;;;0.50;;
51190;SDS011;37253;48.736;9.294;2023-04-08T01:40:09;0.68;;;0.50;;
51190;SDS011;37253;48.736;9.294;2023-04-08T01:42:10;0.68;;;0.50;;
51190;SDS011;37253;48.736;9.294;2023-04-08T01:44:11;1.05;;;0.60;;
51190;SDS011;37253;48.736;9.294;2023-04-08T01:46:13;0.52;;;0.40;;
51190;SDS011;37253;48.736;9.294;2023-04-08T01:48:14;0.50;;;0.43;;
51190;SDS011;37253;48.736;9.294;2023-04-08T01:50:15;0.63;;;0.50;;
51190;SDS011;37253;48.736;9.294;2023-04-08T01:52:16;0.52;;;0.40;;
51190;SDS011;37253;48.736;9.294;2023-04-08T01:54:17;0.80;;;0.40;;
51190;SDS011;37253;48.736;9.294;2023-04-08T01:56:17;0.70;;;0.50;;
51190;SDS011;37253;48.736;9.294;2023-04-08T02:00:25;0.60;;;0.60;;
51190;SDS011;37253;48.736;9.294;2023-04-08T02:02:27;0.40;;;0.40;;
51190;SDS011;37253;48.736;9.294;2023-04-08T02:04:29;0.60;;;0.40;;
51190;SDS011;37253;48.736;9.294;2023-04-08T02:06:29;0.82;;;0.50;;
51190;SDS011;37253;48.736;9.294;2023-04-08T02:08:32;0.47;;;0.40;;
51190;SDS011;37253;48.736;9.294;2023-04-08T02:10:33;1.80;;;0.60;;
51190;SDS011;37253;48.736;9.294;2023-04-08T02:12:33;0.47;;;0.47;;
51190;SDS011;37253;48.736;9.294;2023-04-08T02:14:34;0.88;;;0.60;;
51190;SDS011;37253;48.736;9.294;2023-04-08T02:16:53;0.73;;;0.55;;
51190;SDS011;37253;48.736;9.294;2023-04-08T02:19:01;0.50;;;0.40;;
51190;SDS011;37253;48.736;9.294;2023-04-08T02:21:08;0.85;;;0.50;;
51190;SDS011;37253;48.736;9.294;2023-04-08T02:23:13;1.05;;;0.60;;
51190;SDS011;37253;48.736;9.294;2023-04-08T02:25:15;1.33;;;0.63;;
51190;SDS011;37253;48.736;9.294;2023-04-08T02:27:16;0.77;;;0.50;;
51190;SDS011;37253;48.736;9.294;2023-04-08T02:29:17;0.50;;;0.50;;
51190;SDS011;37253;48.736;9.294;2023-04-08T02:31:18;1.10;;;0.60;;
51190;SDS011;37253;48.736;9.294;2023-04-08T02:33:19;0.70;;;0.60;;
51190;SDS011;37253;48.736;9.294;2023-04-08T02:35:21;0.40;;;0.40;;
51190;SDS011;37253;48.736;9.294;2023-04-08T02:37:21;0.52;;;0.50;;
51190;SDS011;37253;48.736;9.294;2023-04-08T02:39:29;0.65;;;0.40;;
51190;SDS011;37253;48.736;9.294;2023-04-08T02:41:30;0.40;;;0.38;;
51190;SDS011;37253;48.736;9.294;2023-04-08T02:43:30;0.50;;;0.40;;
51190;SDS011;37253;48.736;9.294;2023-04-08T02:45:32;2.22;;;0.50;;
51190;SDS011;37253;48.736;9.294;2023-04-08T02:47:40;0.68;;;0.60;;
51190;SDS011;37253;48.736;9.294;2023-04-08T02:49:40;0.60;;;0.60;;
51190;SDS011;37253;48.736;9.294;2023-04-08T02:51:41;0.50;;;0.50;;
51190;SDS011;37253;48.736;9.294;2023-04-08T02:53:41;0.60;;;0.60;;
51190;SDS011;37253;48.736;9.294;2023-04-08T02:55:41;0.80;;;0.50;;
51190;SDS011;37253;48.736;9.294;2023-04-08T02:57:42;0.60;;;0.50;;
51190;SDS011;37253;48.736;9.294;2023-04-08T02:59:42;0.50;;;0.50;;
51190;SDS011;37253;48.736;9.294;2023-04-08T03:01:43;0.60;;;0.50;;
51190;SDS011;37253;48.736;9.294;2023-04-08T03:03:43;1.30;;;0.50;;
51190;SDS011;37253;48.736;9.294;2023-04-08T03:05:43;0.40;;;0.40;;
51190;SDS011;37253;48.736;9.294;2023-04-08T03:07:44;0.40;;;0.40;;
51190;SDS011;37253;48.736;9.294;2023-04-08T03:09:44;0.65;;;0.60;;
51190;SDS011;37253;48.736;9.294;2023-04-08T03:11:45;0.60;;;0.50;;
51190;SDS011;37253;48.736;9.294;2023-04-08T03:13:51;0.50;;;0.50;;
51190;SDS011;37253;48.736;9.294;2023-04-08T03:15:51;0.57;;;0.57;;
51190;SDS011;37253;48.736;9.294;2023-04-08T03:17:52;0.50;;;0.50;;
51190;SDS011;37253;48.736;9.294;2023-04-08T03:19:52;0.57;;;0.47;;
51190;SDS011;37253;48.736;9.294;2023-04-08T03:21:52;0.60;;;0.50;;
51190;SDS011;37253;48.736;9.294;2023-04-08T03:23:53;0.98;;;0.50;;
51190;SDS011;37253;48.736;9.294;2023-04-08T03:25:53;0.55;;;0.55;;
51190;SDS011;37253;48.736;9.294;2023-04-08T03:27:53;0.40;;;0.40;;
51190;SDS011;37253;48.736;9.294;2023-04-08T03:29:54;0.40;;;0.40;;
51190;SDS011;37253;48.736;9.294;2023-04-08T03:31:56;0.50;;;0.50;;
51190;SDS011;37253;48.736;9.294;2023-04-08T03:33:57;0.32;;;0.32;;
51190;SDS011;37253;48.736;9.294;2023-04-08T03:35:57;0.40;;;0.40;;
51190;SDS011;37253;48.736;9.294;2023-04-08T03:37:57;0.40;;;0.40;;
51190;SDS011;37253;48.736;9.294;2023-04-08T03:39:58;0.50;;;0.40;;
51190;SDS011;37253;48.736;9.294;2023-04-08T03:41:58;1.08;;;0.57;;
51190;SDS011;37253;48.736;9.294;2023-04-08T03:43:59;0.40;;;0.40;;
51190;SDS011;37253;48.736;9.294;2023-04-08T03:46:00;0.60;;;0.40;;
51190;SDS011;37253;48.736;9.294;2023-04-08T03:48:00;0.70;;;0.50;;
51190;SDS011;37253;48.736;9.294;2023-04-08T03:50:00;0.50;;;0.40;;
51190;SDS011;37253;48.736;9.294;2023-04-08T03:52:01;0.50;;;0.40;;
51190;SDS011;37253;48.736;9.294;2023-04-08T03:54:01;0.60;;;0.40;;
51190;SDS011;37253;48.736;9.294;2023-04-08T03:56:02;0.60;;;0.47;;
51190;SDS011;37253;48.736;9.294;2023-04-08T03:58:03;0.30;;;0.30;;
51190;SDS011;37253;48.736;9.294;2023-04-08T04:00:03;0.68;;;0.43;;
51190;SDS011;37253;48.736;9.294;2023-04-08T04:02:04;2.15;;;0.60;;
51190;SDS011;37253;48.736;9.294;2023-04-08T04:04:05;0.60;;;0.50;;
51190;SDS011;37253;48.736;9.294;2023-04-08T04:06:05;0.30;;;0.30;;
51190;SDS011;37253;48.736;9.294;2023-04-08T04:08:06;0.40;;;0.40;;
51190;SDS011;37253;48.736;9.294;2023-04-08T04:10:08;0.45;;;0.45;;
51190;SDS011;37253;48.736;9.294;2023-04-08T04:12:09;0.50;;;0.40;;
51190;SDS011;37253;48.736;9.294;2023-04-08T04:14:10;0.50;;;0.50;;
51190;SDS011;37253;48.736;9.294;2023-04-08T04:16:10;0.50;;;0.40;;
51190;SDS011;37253;48.736;9.294;2023-04-08T04:18:10;0.45;;;0.45;;
51190;SDS011;37253;48.736;9.294;2023-04-08T04:20:11;0.80;;;0.38;;
51190;SDS011;37253;48.736;9.294;2023-04-08T04:22:11;0.70;;;0.40;;
51190;SDS011;37253;48.736;9.294;2023-04-08T04:24:11;0.47;;;0.38;;
51190;SDS011;37253;48.736;9.294;2023-04-08T04:26:13;0.38;;;0.35;;
51190;SDS011;37253;48.736;9.294;2023-04-08T04:28:14;0.63;;;0.50;;
51190;SDS011;37253;48.736;9.294;2023-04-08T04:30:14;0.50;;;0.50;;
51190;SDS011;37253;48.736;9.294;2023-04-08T04:32:15;1.02;;;0.50;;
51190;SDS011;37253;48.736;9.294;2023-04-08T04:34:15;0.57;;;0.40;;
51190;SDS011;37253;48.736;9.294;2023-04-08T04:36:16;0.70;;;0.47;;
51190;SDS011;37253;48.736;9.294;2023-04-08T04:38:17;0.50;;;0.43;;
51190;SDS011;37253;48.736;9.294;2023-04-08T04:40:17;0.50;;;0.40;;
51190;SDS011;37253;48.736;9.294;2023-04-08T04:42:17;1.10;;;0.52;;
51190;SDS011;37253;48.736;9.294;2023-04-08T04:44:18;0.52;;;0.40;;
51190;SDS011;37253;48.736;9.294;2023-04-08T04:46:18;0.50;;;0.45;;
51190;SDS011;37253;48.736;9.294;2023-04-08T04:48:18;0.32;;;0.32;;
51190;SDS011;37253;48.736;9.294;2023-04-08T04:50:19;0.47;;;0.40;;
51190;SDS011;37253;48.736;9.294;2023-04-08T04:52:20;0.73;;;0.52;;
51190;SDS011;37253;48.736;9.294;2023-04-08T04:54:20;0.40;;;0.40;;
51190;SDS011;37253;48.736;9.294;2023-04-08T04:56:20;0.65;;;0.50;;
51190;SDS011;37253;48.736;9.294;2023-04-08T04:58:20;0.60;;;0.50;;
51190;SDS011;37253;48.736;9.294;2023-04-08T05:00:21;0.70;;;0.50;;
51190;SDS011;37253;48.736;9.294;2023-04-08T05:02:21;0.60;;;0.40;;
51190;SDS011;37253;48.736;9.294;2023-04-08T05:04:22;0.60;;;0.40;;
51190;SDS011;37253;48.736;9.294;2023-04-08T05:06:23;0.40;;;0.40;;
51190;SDS011;37253;48.736;9.294;2023-04-08T05:08:23;0.85;;;0.45;;
51190;SDS011;37253;48.736;9.294;2023-04-08T05:10:23;1.15;;;0.50;;
51190;SDS011;37253;48.736;9.294;2023-04-08T05:12:24;0.45;;;0.40;;
51190;SDS011;37253;48.736;9.294;2023-04-08T05:14:27;0.50;;;0.50;;
51190;SDS011;37253;48.736;9.294;2023-04-08T05:16:29;0.90;;;0.43;;
51190;SDS011;37253;48.736;9.294;2023-04-08T05:18:29;0.40;;;0.40;;
51190;SDS011;37253;48.736;9.294;2023-04-08T05:20:29;1.33;;;0.50;;
51190;SDS011;37253;48.736;9.294;2023-04-08T05:22:30;0.43;;;0.40;;
51190;SDS011;37253;48.736;9.294;2023-04-08T05:24:30;0.50;;;0.50;;
51190;SDS011;37253;48.736;9.294;2023-04-08T05:26:30;0.60;;;0.40;;
51190;SDS011;37253;48.736;9.294;2023-04-08T05:28:31;0.50;;;0.50;;
51190;SDS011;37253;48.736;9.294;2023-04-08T05:30:32;0.60;;;0.40;;
51190;SDS011;37253;48.736;9.294;2023-04-08T05:32:32;0.40;;;0.40;;
51190;SDS011;37253;48.736;9.294;2023-04-08T05:34:32;0.50;;;0.40;;
51190;SDS011;37253;48.736;9.294;2023-04-08T05:36:33;0.50;;;0.50;;
51190;SDS011;37253;48.736;9.294;2023-04-08T05:38:33;1.30;;;0.52;;
51190;SDS011;37253;48.736;9.294;2023-04-08T05:40:33;0.60;;;0.40;;
51190;SDS011;37253;48.736;9.294;2023-04-08T05:42:34;0.50;;;0.40;;
51190;SDS011;37253;48.736;9.294;2023-04-08T05:44:34;0.30;;;0.30;;
51190;SDS011;37253;48.736;9.294;2023-04-08T05:46:34;0.40;;;0.40;;
51190;SDS011;37253;48.736;9.294;2023-04-08T05:48:35;0.55;;;0.50;;
51190;SDS011;37253;48.736;9.294;2023-04-08T05:50:35;0.60;;;0.50;;
51190;SDS011;37253;48.736;9.294;2023-04-08T05:52:36;0.47;;;0.47;;
51190;SDS011;37253;48.736;9.294;2023-04-08T05:54:36;0.70;;;0.47;;
51190;SDS011;37253;48.736;9.294;2023-04-08T05:56:36;0.50;;;0.40;;
51190;SDS011;37253;48.736;9.294;2023-04-08T05:58:37;1.15;;;0.50;;
51190;SDS011;37253;48.736;9.294;2023-04-08T06:00:37;0.47;;;0.40;;
51190;SDS011;37253;48.736;9.294;2023-04-08T06:02:37;0.40;;;0.40;;
51190;SDS011;37253;48.736;9.294;2023-04-08T06:04:38;0.50;;;0.50;;
51190;SDS011;37253;48.736;9.294;2023-04-08T06:06:38;0.38;;;0.38;;
51190;SDS011;37253;48.736;9.294;2023-04-08T06:08:41;0.70;;;0.52;;
51190;SDS011;37253;48.736;9.294;2023-04-08T06:10:47;0.70;;;0.57;;
51190;SDS011;37253;48.736;9.294;2023-04-08T06:12:49;0.40;;;0.40;;
51190;SDS011;37253;48.736;9.294;2023-04-08T06:14:52;0.70;;;0.60;;
51190;SDS011;37253;48.736;9.294;2023-04-08T06:16:54;0.40;;;0.40;;
51190;SDS011;37253;48.736;9.294;2023-04-08T06:18:56;0.40;;;0.40;;
51190;SDS011;37253;48.736;9.294;2023-04-08T06:20:56;0.68;;;0.40;;
51190;SDS011;37253;48.736;9.294;2023-04-08T06:22:58;0.57;;;0.50;;
51190;SDS011;37253;48.736;9.294;2023-04-08T06:24:58;0.60;;;0.55;;
51190;SDS011;37253;48.736;9.294;2023-04-08T06:26:59;0.50;;;0.50;;
51190;SDS011;37253;48.736;9.294;2023-04-08T06:28:59;0.88;;;0.60;;
51190;SDS011;37253;48.736;9.294;2023-04-08T06:31:00;0.60;;;0.50;;
51190;SDS011;37253;48.736;9.294;2023-04-08T06:33:01;1.08;;;0.50;;
51190;SDS011;37253;48.736;9.294;2023-04-08T06:35:01;0.57;;;0.55;;
51190;SDS011;37253;48.736;9.294;2023-04-08T06:37:01;1.30;;;0.50;;
51190;SDS011;37253;48.736;9.294;2023-04-08T06:39:02;0.55;;;0.55;;
51190;SDS011;37253;48.736;9.294;2023-04-08T06:41:03;1.38;;;0.70;;
51190;SDS011;37253;48.736;9.294;2023-04-08T06:43:05;0.75;;;0.65;;
51190;SDS011;37253;48.736;9.294;2023-04-08T06:45:08;0.95;;;0.60;;
51190;SDS011;37253;48.736;9.294;2023-04-08T06:47:09;0.90;;;0.60;;
51190;SDS011;37253;48.736;9.294;2023-04-08T06:49:10;0.55;;;0.52;;
51190;SDS011;37253;48.736;9.294;2023-04-08T06:51:10;0.57;;;0.40;;
51190;SDS011;37253;48.736;9.294;2023-04-08T06:53:11;0.55;;;0.55;;
51190;SDS011;37253;48.736;9.294;2023-04-08T06:55:11;0.40;;;0.40;;
51190;SDS011;37253;48.736;9.294;2023-04-08T06:57:11;0.60;;;0.40;;
51190;SDS011;37253;48.736;9.294;2023-04-08T06:59:12;0.40;;;0.35;;
51190;SDS011;37253;48.736;9.294;2023-04-08T07:01:12;0.50;;;0.50;;
51190;SDS011;37253;48.736;9.294;2023-04-08T07:03:13;0.95;;;0.60;;
51190;SDS011;37253;48.736;9.294;2023-04-08T07:05:13;1.13;;;0.40;;
51190;SDS011;37253;48.736;9.294;2023-04-08T07:07:13;0.65;;;0.57;;
51190;SDS011;37253;48.736;9.294;2023-04-08T07:09:14;0.60;;;0.50;;
51190;SDS011;37253;48.736;9.294;2023-04-08T07:11:14;0.65;;;0.50;;
51190;SDS011;37253;48.736;9.294;2023-04-08T07:13:15;0.82;;;0.60;;
51190;SDS011;37253;48.736;9.294;2023-04-08T07:15:16;0.90;;;0.60;;
51190;SDS011;37253;48.736;9.294;2023-04-08T07:17:16;0.50;;;0.50;;
51190;SDS011;37253;48.736;9.294;2023-04-08T07:19:17;1.23;;;0.50;;
51190;SDS011;37253;48.736;9.294;2023-04-08T07:21:17;0.60;;;0.50;;
51190;SDS011;37253;48.736;9.294;2023-04-08T07:23:17;1.40;;;0.60;;
51190;SDS011;37253;48.736;9.294;2023-04-08T07:25:18;0.52;;;0.47;;
51190;SDS011;37253;48.736;9.294;2023-04-08T07:27:18;0.52;;;0.50;;
51190;SDS011;37253;48.736;9.294;2023-04-08T07:29:19;0.70;;;0.50;;
51190;SDS011;37253;48.736;9.294;2023-04-08T07:31:19;0.68;;;0.50;;
51190;SDS011;37253;48.736;9.294;2023-04-08T07:33:19;0.75;;;0.50;;
51190;SDS011;37253;48.736;9.294;2023-04-08T07:35:20;0.50;;;0.50;;
51190;SDS011;37253;48.736;9.294;2023-04-08T07:39:23;0.50;;;0.50;;
51190;SDS011;37253;48.736;9.294;2023-04-08T07:41:23;0.70;;;0.50;;
51190;SDS011;37253;48.736;9.294;2023-04-08T07:43:24;0.57;;;0.43;;
51190;SDS011;37253;48.736;9.294;2023-04-08T07:45:24;3.08;;;0.70;;
51190;SDS011;37253;48.736;9.294;2023-04-08T07:47:24;7.07;;;0.80;;
51190;SDS011;37253;48.736;9.294;2023-04-08T07:49:25;2.67;;;0.70;;
51190;SDS011;37253;48.736;9.294;2023-04-08T07:51:25;1.67;;;0.65;;
51190;SDS011;37253;48.736;9.294;2023-04-08T07:53:26;0.70;;;0.60;;
51190;SDS011;37253;48.736;9.294;2023-04-08T07:55:27;8.57;;;0.80;;
51190;SDS011;37253;48.736;9.294;2023-04-08T07:57:27;0.82;;;0.77;;
51190;SDS011;37253;48.736;9.294;2023-04-08T07:59:28;3.75;;;0.95;;
51190;SDS011;37253;48.736;9.294;2023-04-08T08:01:28;4.30;;;1.00;;
51190;SDS011;37253;48.736;9.294;2023-04-08T08:03:30;2.60;;;1.23;;
51190;SDS011;37253;48.736;9.294;2023-04-08T08:05:30;5.40;;;1.42;;
51190;SDS011;37253;48.736;9.294;2023-04-08T08:07:30;3.63;;;1.10;;
51190;SDS011;37253;48.736;9.294;2023-04-08T08:09:31;5.53;;;1.40;;
51190;SDS011;37253;48.736;9.294;2023-04-08T08:11:31;6.15;;;1.20;;
51190;SDS011;37253;48.736;9.294;2023-04-08T08:13:33;8.07;;;1.10;;
51190;SDS011;37253;48.736;9.294;2023-04-08T08:15:33;1.80;;;0.95;;
51190;SDS011;37253;48.736;9.294;2023-04-08T08:17:34;6.40;;;1.20;;
51190;SDS011;37253;48.736;9.294;2023-04-08T08:19:34;5.07;;;1.23;;
51190;SDS011;37253;48.736;9.294;2023-04-08T08:21:35;4.25;;;1.10;;
51190;SDS011;37253;48.736;9.294;2023-04-08T08:23:36;2.53;;;1.02;;
51190;SDS011;37253;48.736;9.294;2023-04-08T08:25:36;5.07;;;1.45;;
51190;SDS011;37253;48.736;9.294;2023-04-08T08:27:36;4.18;;;1.00;;
51190;SDS011;37253;48.736;9.294;2023-04-08T08:29:39;6.38;;;0.95;;
51190;SDS011;37253;48.736;9.294;2023-04-08T08:31:39;2.13;;;1.30;;
51190;SDS011;37253;48.736;9.294;2023-04-08T08:33:40;5.75;;;1.20;;
51190;SDS011;37253;48.736;9.294;2023-04-08T08:35:40;2.38;;;1.00;;
51190;SDS011;37253;48.736;9.294;2023-04-08T08:37:40;2.60;;;1.10;;
51190;SDS011;37253;48.736;9.294;2023-04-08T08:39:41;1.48;;;0.82;;
51190;SDS011;37253;48.736;9.294;2023-04-08T08:41:41;3.05;;;1.13;;
51190;SDS011;37253;48.736;9.294;2023-04-08T08:43:41;3.58;;;1.00;;
51190;SDS011;37253;48.736;9.294;2023-04-08T08:45:44;2.30;;;0.90;;
51190;SDS011;37253;48.736;9.294;2023-04-08T08:47:44;4.68;;;1.20;;
51190;SDS011;37253;48.736;9.294;2023-04-08T08:49:44;4.00;;;0.80;;
51190;SDS011;37253;48.736;9.294;2023-04-08T08:51:46;3.65;;;1.13;;
51190;SDS011;37253;48.736;9.294;2023-04-08T08:53:48;1.73;;;0.90;;
51190;SDS011;37253;48.736;9.294;2023-04-08T08:55:48;1.10;;;0.90;;
51190;SDS011;37253;48.736;9.294;2023-04-08T08:57:49;1.10;;;0.80;;
51190;SDS011;37253;48.736;9.294;2023-04-08T08:59:50;7.32;;;1.10;;
51190;SDS011;37253;48.736;9.294;2023-04-08T09:01:50;1.80;;;0.90;;
51190;SDS011;37253;48.736;9.294;2023-04-08T09:06:09;3.50;;;1.30;;
51190;SDS011;37253;48.736;9.294;2023-04-08T09:08:21;1.30;;;0.90;;
51190;SDS011;37253;48.736;9.294;2023-04-08T09:10:42;1.20;;;0.90;;
51190;SDS011;37253;48.736;9.294;2023-04-08T09:12:52;1.63;;;0.90;;
51190;SDS011;37253;48.736;9.294;2023-04-08T09:15:06;2.30;;;0.98;;
51190;SDS011;37253;48.736;9.294;2023-04-08T09:17:08;1.85;;;1.00;;
51190;SDS011;37253;48.736;9.294;2023-04-08T09:19:09;3.35;;;0.80;;
51190;SDS011;37253;48.736;9.294;2023-04-08T09:21:10;1.48;;;0.82;;
51190;SDS011;37253;48.736;9.294;2023-04-08T09:23:11;4.75;;;0.90;;
51190;SDS011;37253;48.736;9.294;2023-04-08T09:25:21;2.38;;;1.02;;
51190;SDS011;37253;48.736;9.294;2023-04-08T09:27:34;1.50;;;0.80;;
51190;SDS011;37253;48.736;9.294;2023-04-08T09:29:35;2.30;;;0.90;;
51190;SDS011;37253;48.736;9.294;2023-04-08T09:31:37;1.40;;;0.90;;
51190;SDS011;37253;48.736;9.294;2023-04-08T09:33:41;1.20;;;0.80;;
51190;SDS011;37253;48.736;9.294;2023-04-08T09:35:41;0.95;;;0.75;;
51190;SDS011;37253;48.736;9.294;2023-04-08T09:37:46;2.20;;;1.10;;
51190;SDS011;37253;48.736;9.294;2023-04-08T09:39:47;1.23;;;0.70;;
51190;SDS011;37253;48.736;9.294;2023-04-08T09:41:48;2.78;;;0.90;;
51190;SDS011;37253;48.736;9.294;2023-04-08T09:43:50;1.20;;;0.80;;
51190;SDS011;37253;48.736;9.294;2023-04-08T09:47:56;2.67;;;0.90;;
51190;SDS011;37253;48.736;9.294;2023-04-08T09:50:03;2.08;;;0.70;;
51190;SDS011;37253;48.736;9.294;2023-04-08T09:52:06;1.10;;;0.88;;
51190;SDS011;37253;48.736;9.294;2023-04-08T09:54:09;1.92;;;0.95;;
51190;SDS011;37253;48.736;9.294;2023-04-08T09:56:13;1.67;;;0.90;;
51190;SDS011;37253;48.736;9.294;2023-04-08T09:58:20;1.25;;;0.70;;
51190;SDS011;37253;48.736;9.294;2023-04-08T10:00:24;0.90;;;0.80;;
51190;SDS011;37253;48.736;9.294;2023-04-08T10:02:30;2.17;;;0.70;;
51190;SDS011;37253;48.736;9.294;2023-04-08T10:04:34;1.02;;;0.70;;
51190;SDS011;37253;48.736;9.294;2023-04-08T10:06:38;1.30;;;0.80;;
51190;SDS011;37253;48.736;9.294;2023-04-08T10:08:39;1.10;;;0.80;;
51190;SDS011;37253;48.736;9.294;2023-04-08T10:10:39;0.80;;;0.70;;
51190;SDS011;37253;48.736;9.294;2023-04-08T10:12:40;1.00;;;0.80;;
51190;SDS011;37253;48.736;9.294;2023-04-08T10:14:41;0.65;;;0.63;;
51190;SDS011;37253;48.736;9.294;2023-04-08T10:16:41;0.82;;;0.80;;
51190;SDS011;37253;48.736;9.294;2023-04-08T10:18:41;1.27;;;0.70;;
51190;SDS011;37253;48.736;9.294;2023-04-08T10:20:43;1.20;;;0.73;;
51190;SDS011;37253;48.736;9.294;2023-04-08T10:22:44;1.90;;;0.80;;
51190;SDS011;37253;48.736;9.294;2023-04-08T10:25:16;0.90;;;0.80;;
51190;SDS011;37253;48.736;9.294;2023-04-08T10:27:37;1.02;;;0.77;;
51190;SDS011;37253;48.736;9.294;2023-04-08T10:29:39;0.95;;;0.80;;
51190;SDS011;37253;48.736;9.294;2023-04-08T10:31:40;1.08;;;0.85;;
51190;SDS011;37253;48.736;9.294;2023-04-08T10:33:40;1.92;;;0.80;;
51190;SDS011;37253;48.736;9.294;2023-04-08T10:35:46;1.52;;;0.77;;
51190;SDS011;37253;48.736;9.294;2023-04-08T10:37:47;1.88;;;0.90;;
51190;SDS011;37253;48.736;9.294;2023-04-08T10:39:48;1.20;;;0.85;;
51190;SDS011;37253;48.736;9.294;2023-04-08T10:41:50;1.30;;;1.00;;
51190;SDS011;37253;48.736;9.294;2023-04-08T10:43:50;1.92;;;1.10;;
51190;SDS011;37253;48.736;9.294;2023-04-08T10:45:52;2.35;;;0.95;;
51190;SDS011;37253;48.736;9.294;2023-04-08T10:47:52;1.80;;;1.02;;
51190;SDS011;37253;48.736;9.294;2023-04-08T10:49:52;2.22;;;1.00;;
51190;SDS011;37253;48.736;9.294;2023-04-08T10:51:53;4.03;;;1.08;;
51190;SDS011;37253;48.736;9.294;2023-04-08T10:53:53;2.78;;;0.93;;
51190;SDS011;37253;48.736;9.294;2023-04-08T10:55:54;1.10;;;0.90;;
51190;SDS011;37253;48.736;9.294;2023-04-08T10:58:06;1.88;;;0.80;;
51190;SDS011;37253;48.736;9.294;2023-04-08T11:00:09;2.92;;;0.90;;
51190;SDS011;37253;48.736;9.294;2023-04-08T11:02:13;3.50;;;1.00;;
51190;SDS011;37253;48.736;9.294;2023-04-08T11:04:15;2.47;;;1.20;;
51190;SDS011;37253;48.736;9.294;2023-04-08T11:08:18;2.15;;;1.25;;
51190;SDS011;37253;48.736;9.294;2023-04-08T11:10:19;3.35;;;1.10;;
51190;SDS011;37253;48.736;9.294;2023-04-08T11:12:20;5.32;;;1.20;;
51190;SDS011;37253;48.736;9.294;2023-04-08T11:14:20;7.65;;;1.42;;
51190;SDS011;37253;48.736;9.294;2023-04-08T11:16:22;13.60;;;1.60;;
51190;SDS011;37253;48.736;9.294;2023-04-08T11:18:23;6.78;;;1.75;;
51190;SDS011;37253;48.736;9.294;2023-04-08T11:20:24;7.80;;;1.95;;
51190;SDS011;37253;48.736;9.294;2023-04-08T11:22:24;12.77;;;2.38;;
51190;SDS011;37253;48.736;9.294;2023-04-08T11:24:26;11.27;;;2.00;;
51190;SDS011;37253;48.736;9.294;2023-04-08T11:26:27;6.45;;;2.17;;
51190;SDS011;37253;48.736;9.294;2023-04-08T11:28:27;10.48;;;2.15;;
51190;SDS011;37253;48.736;9.294;2023-04-08T11:30:28;9.25;;;1.85;;
51190;SDS011;37253;48.736;9.294;2023-04-08T11:32:29;18.77;;;2.35;;
51190;SDS011;37253;48.736;9.294;2023-04-08T11:34:29;11.90;;;2.20;;
51190;SDS011;37253;48.736;9.294;2023-04-08T11:36:30;5.30;;;1.80;;
51190;SDS011;37253;48.736;9.294;2023-04-08T11:38:30;14.90;;;2.22;;
51190;SDS011;37253;48.736;9.294;2023-04-08T11:40:30;9.65;;;2.05;;
51190;SDS011;37253;48.736;9.294;2023-04-08T11:42:31;7.95;;;1.80;;
51190;SDS011;37253;48.736;9.294;2023-04-08T11:44:32;10.52;;;1.58;;
51190;SDS011;37253;48.736;9.294;2023-04-08T11:46:33;6.40;;;2.13;;
51190;SDS011;37253;48.736;9.294;2023-04-08T11:48:34;7.72;;;1.98;;
51190;SDS011;37253;48.736;9.294;2023-04-08T11:50:35;7.32;;;2.00;;
51190;SDS011;37253;48.736;9.294;2023-04-08T11:54:49;6.63;;;1.92;;
51190;SDS011;37253;48.736;9.294;2023-04-08T11:56:49;5.90;;;1.80;;
51190;SDS011;37253;48.736;9.294;2023-04-08T11:58:51;7.20;;;1.83;;
51190;SDS011;37253;48.736;9.294;2023-04-08T12:00:52;8.57;;;1.75;;
51190;SDS011;37253;48.736;9.294;2023-04-08T12:02:52;6.40;;;1.90;;
51190;SDS011;37253;48.736;9.294;2023-04-08T12:04:53;7.57;;;1.60;;
51190;SDS011;37253;48.736;9.294;2023-04-08T12:06:53;8.00;;;1.80;;
51190;SDS011;37253;48.736;9.294;2023-04-08T12:08:54;7.60;;;1.77;;
51190;SDS011;37253;48.736;9.294;2023-04-08T12:10:55;8.15;;;1.55;;
51190;SDS011;37253;48.736;9.294;2023-04-08T12:12:56;11.93;;;1.70;;
51190;SDS011;37253;48.736;9.294;2023-04-08T12:14:56;6.18;;;1.40;;
51190;SDS011;37253;48.736;9.294;2023-04-08T12:16:56;4.18;;;1.38;;
51190;SDS011;37253;48.736;9.294;2023-04-08T12:18:57;6.55;;;1.45;;
51190;SDS011;37253;48.736;9.294;2023-04-08T12:20:57;6.60;;;1.55;;
51190;SDS011;37253;48.736;9.294;2023-04-08T12:22:57;3.10;;;1.40;;
51190;SDS011;37253;48.736;9.294;2023-04-08T12:24:58;3.58;;;1.33;;
51190;SDS011;37253;48.736;9.294;2023-04-08T12:26:58;5.60;;;1.75;;